createdAt,value
2023-02-08T00:00:38.709Z,-2.29
2023-02-08T00:01:38.614Z,-2.14
2023-02-08T00:02:39.633Z,-2.26
2023-02-08T00:03:39.784Z,-2.13
2023-02-08T00:04:40.350Z,-2.29
2023-02-08T00:05:40.281Z,-2.22
2023-02-08T00:06:41.772Z,-2.2
2023-02-08T00:07:41.739Z,-2.34
2023-02-08T00:08:42.979Z,-2.26
2023-02-08T00:09:43.174Z,-2.17
2023-02-08T00:10:45.173Z,-2.29
2023-02-08T00:11:45.208Z,-2.26
2023-02-08T00:12:45.420Z,-2.26
2023-02-08T00:13:48.186Z,-2.29
2023-02-08T00:14:46.808Z,-2.13
2023-02-08T00:15:48.158Z,-2.15
2023-02-08T00:16:48.158Z,-2.14
2023-02-08T00:17:48.831Z,-2.15
2023-02-08T00:18:49.037Z,-2.28
2023-02-08T00:19:50.252Z,-2.23
2023-02-08T00:20:50.175Z,-2.33
2023-02-08T00:21:51.453Z,-2.34
2023-02-08T00:22:53.764Z,-2.34
2023-02-08T00:23:52.322Z,-2.42
2023-02-08T00:24:52.540Z,-2.39
2023-02-08T00:25:52.805Z,-2.4
2023-02-08T00:26:53.725Z,-2.34
2023-02-08T00:27:54.084Z,-2.47
2023-02-08T00:28:54.991Z,-2.54
2023-02-08T00:29:55.207Z,-2.51
2023-02-08T00:30:55.790Z,-2.51
2023-02-08T00:31:55.433Z,-2.48
2023-02-08T00:32:56.546Z,-2.5
2023-02-08T00:33:56.474Z,-2.55
2023-02-08T00:34:57.382Z,-2.52
2023-02-08T00:35:57.045Z,-2.51
2023-02-08T00:36:58.317Z,-2.51
2023-02-08T00:37:58.570Z,-2.5
2023-02-08T00:38:58.804Z,-2.5
2023-02-08T00:39:59.721Z,-2.58
2023-02-08T00:40:59.961Z,-2.61
2023-02-08T00:42:00.683Z,-2.69
2023-02-08T00:43:01.356Z,-2.58
2023-02-08T00:44:01.840Z,-2.61
2023-02-08T00:45:01.798Z,-2.61
2023-02-08T00:46:02.009Z,-2.54
2023-02-08T00:47:03.054Z,-2.58
2023-02-08T00:48:04.273Z,-2.62
2023-02-08T00:49:04.631Z,-2.52
2023-02-08T00:50:05.544Z,-2.65
2023-02-08T00:51:06.086Z,-2.61
2023-02-08T00:52:06.563Z,-2.65
2023-02-08T00:53:07.573Z,-2.65
2023-02-08T00:54:07.799Z,-2.69
2023-02-08T00:55:08.452Z,-2.57
2023-02-08T00:56:09.429Z,-2.62
2023-02-08T00:57:10.344Z,-2.7
2023-02-08T00:58:10.970Z,-2.66
2023-02-08T00:59:11.163Z,-2.66
2023-02-08T01:00:11.677Z,-2.55
2023-02-08T01:01:12.686Z,-2.55
2023-02-08T01:02:13.820Z,-2.63
2023-02-08T01:03:13.791Z,-2.58
2023-02-08T01:04:14.707Z,-2.69
2023-02-08T01:05:14.905Z,-2.7
2023-02-08T01:06:15.522Z,-2.75
2023-02-08T01:07:16.169Z,-2.73
2023-02-08T01:08:17.129Z,-2.75
2023-02-08T01:09:17.632Z,-2.72
2023-02-08T01:10:17.273Z,-2.73
2023-02-08T01:11:18.609Z,-2.78
2023-02-08T01:12:18.935Z,-2.72
2023-02-08T01:13:18.847Z,-2.76
2023-02-08T01:14:19.343Z,-2.72
2023-02-08T01:15:19.983Z,-2.81
2023-02-08T01:16:21.331Z,-2.78
2023-02-08T01:17:21.490Z,-2.87
2023-02-08T01:18:21.407Z,-2.81
2023-02-08T01:19:22.597Z,-2.86
2023-02-08T01:20:22.559Z,-2.89
2023-02-08T01:21:22.754Z,-2.87
2023-02-08T01:22:23.761Z,-2.93
2023-02-08T01:23:25.004Z,-2.94
2023-02-08T01:24:25.224Z,-2.91
2023-02-08T01:25:25.721Z,-2.99
2023-02-08T01:26:25.667Z,-2.98
2023-02-08T01:27:26.874Z,-2.96
2023-02-08T01:28:27.605Z,-3.01
2023-02-08T01:29:28.542Z,-2.98
2023-02-08T01:30:29.630Z,-2.98
2023-02-08T01:31:29.899Z,-2.98
2023-02-08T01:32:31.130Z,-2.98
2023-02-08T01:33:31.768Z,-2.91
2023-02-08T01:34:31.968Z,-2.94
2023-02-08T01:35:32.725Z,-2.93
2023-02-08T01:36:32.909Z,-2.98
2023-02-08T01:37:33.129Z,-2.96
2023-02-08T01:38:33.775Z,-2.91
2023-02-08T01:39:34.276Z,-2.94
2023-02-08T01:40:33.905Z,-2.96
2023-02-08T01:41:34.068Z,-2.91
2023-02-08T01:42:34.500Z,-2.93
2023-02-08T01:43:34.867Z,-2.94
2023-02-08T01:44:35.349Z,-2.81
2023-02-08T01:45:36.075Z,-2.8
2023-02-08T01:46:36.639Z,-2.83
2023-02-08T01:47:36.850Z,-2.84
2023-02-08T01:48:37.053Z,-2.9
2023-02-08T01:49:37.275Z,-2.9
2023-02-08T01:50:37.987Z,-2.86
2023-02-08T01:51:38.273Z,-2.93
2023-02-08T01:52:38.679Z,-2.94
2023-02-08T01:53:39.244Z,-2.9
2023-02-08T01:54:39.741Z,-2.89
2023-02-08T01:55:40.075Z,-2.93
2023-02-08T01:56:40.631Z,-2.9
2023-02-08T01:57:40.579Z,-2.87
2023-02-08T01:58:41.508Z,-2.91
2023-02-08T01:59:42.441Z,-2.94
2023-02-08T02:00:43.695Z,-2.89
2023-02-08T02:01:44.152Z,-2.96
2023-02-08T02:02:45.144Z,-2.91
2023-02-08T02:03:45.083Z,-2.9
2023-02-08T02:04:45.621Z,-2.94
2023-02-08T02:05:45.827Z,-2.9
2023-02-08T02:06:47.101Z,-2.9
2023-02-08T02:07:47.591Z,-2.91
2023-02-08T02:08:47.843Z,-2.94
2023-02-08T02:09:48.349Z,-2.91
2023-02-08T02:10:48.917Z,-2.96
2023-02-08T02:11:49.169Z,-3.01
2023-02-08T02:12:50.193Z,-2.98
2023-02-08T02:13:50.683Z,-2.99
2023-02-08T02:14:50.366Z,-3.05
2023-02-08T02:15:51.267Z,-3.05
2023-02-08T02:16:51.956Z,-3.12
2023-02-08T02:17:51.903Z,-3.11
2023-02-08T02:18:52.822Z,-3.08
2023-02-08T02:19:53.457Z,-3.04
2023-02-08T02:20:54.949Z,-3.17
2023-02-08T02:21:55.863Z,-3.08
2023-02-08T02:22:56.555Z,-3.08
2023-02-08T02:23:57.110Z,-3.14
2023-02-08T02:24:58.073Z,-3.12
2023-02-08T02:25:58.762Z,-3.19
2023-02-08T02:26:58.750Z,-3.15
2023-02-08T02:27:59.560Z,-3.22
2023-02-08T02:28:59.634Z,-3.29
2023-02-08T02:29:59.816Z,-3.26
2023-02-08T02:31:00.821Z,-3.33
2023-02-08T02:32:01.790Z,-3.38
2023-02-08T02:33:01.283Z,-3.25
2023-02-08T02:34:02.217Z,-3.4
2023-02-08T02:35:03.455Z,-3.36
2023-02-08T02:36:04.117Z,-3.38
2023-02-08T02:37:04.629Z,-3.23
2023-02-08T02:38:04.833Z,-3.26
2023-02-08T02:39:06.105Z,-3.32
2023-02-08T02:40:06.593Z,-3.37
2023-02-08T02:41:06.508Z,-3.33
2023-02-08T02:42:06.754Z,-3.4
2023-02-08T02:43:07.778Z,-3.33
2023-02-08T02:44:08.056Z,-3.38
2023-02-08T02:45:08.968Z,-3.23
2023-02-08T02:46:09.843Z,-3.36
2023-02-08T02:47:09.816Z,-3.33
2023-02-08T02:48:09.736Z,-3.32
2023-02-08T02:49:10.375Z,-3.4
2023-02-08T02:50:11.581Z,-3.32
2023-02-08T02:51:11.529Z,-3.3
2023-02-08T02:52:12.005Z,-3.29
2023-02-08T02:53:12.319Z,-3.38
2023-02-08T02:54:13.012Z,-3.38
2023-02-08T02:55:13.958Z,-3.44
2023-02-08T02:56:13.923Z,-3.41
2023-02-08T02:57:14.467Z,-3.43
2023-02-08T02:58:14.962Z,-3.41
2023-02-08T02:59:14.865Z,-3.43
2023-02-08T03:00:16.103Z,-3.44
2023-02-08T03:01:17.476Z,-3.48
2023-02-08T03:02:17.229Z,-3.43
2023-02-08T03:03:18.028Z,-3.5
2023-02-08T03:04:18.407Z,-3.55
2023-02-08T03:05:19.386Z,-3.64
2023-02-08T03:06:19.597Z,-3.61
2023-02-08T03:07:20.264Z,-3.62
2023-02-08T03:08:21.748Z,-3.66
2023-02-08T03:09:22.027Z,-3.74
2023-02-08T03:10:21.972Z,-3.68
2023-02-08T03:11:22.446Z,-3.77
2023-02-08T03:12:23.000Z,-3.75
2023-02-08T03:13:24.031Z,-3.8
2023-02-08T03:14:23.949Z,-3.8
2023-02-08T03:15:24.571Z,-3.87
2023-02-08T03:16:24.596Z,-3.87
2023-02-08T03:17:24.658Z,-3.81
2023-02-08T03:18:25.594Z,-3.87
2023-02-08T03:19:26.525Z,-3.88
2023-02-08T03:20:27.437Z,-4.04
2023-02-08T03:21:27.805Z,-3.98
2023-02-08T03:22:27.731Z,-4.02
2023-02-08T03:23:29.041Z,-3.95
2023-02-08T03:24:28.997Z,-3.95
2023-02-08T03:25:29.537Z,-3.91
2023-02-08T03:26:30.072Z,-3.96
2023-02-08T03:27:30.012Z,-3.94
2023-02-08T03:28:30.929Z,-4.01
2023-02-08T03:29:31.928Z,-3.91
2023-02-08T03:30:31.862Z,-3.94
2023-02-08T03:31:32.599Z,-3.95
2023-02-08T03:32:32.620Z,-3.99
2023-02-08T03:33:33.958Z,-3.96
2023-02-08T03:34:34.153Z,-3.98
2023-02-08T03:35:34.644Z,-3.9
2023-02-08T03:36:34.298Z,-3.95
2023-02-08T03:37:35.199Z,-3.91
2023-02-08T03:38:35.688Z,-3.9
2023-02-08T03:39:35.918Z,-3.88
2023-02-08T03:40:36.450Z,-3.9
2023-02-08T03:41:36.599Z,-3.95
2023-02-08T03:42:37.233Z,-4.01
2023-02-08T03:43:37.041Z,-3.88
2023-02-08T03:44:37.547Z,-3.96
2023-02-08T03:45:38.033Z,-3.94
2023-02-08T03:46:37.786Z,-3.8
2023-02-08T03:47:39.004Z,-3.84
2023-02-08T03:48:39.946Z,-3.84
2023-02-08T03:49:40.151Z,-3.94
2023-02-08T03:50:42.130Z,-3.98
2023-02-08T03:51:41.538Z,-3.96
2023-02-08T03:52:42.459Z,-3.94
2023-02-08T03:53:43.525Z,-3.87
2023-02-08T03:54:44.499Z,-3.83
2023-02-08T03:55:44.728Z,-3.85
2023-02-08T03:56:45.650Z,-3.88
2023-02-08T03:57:46.179Z,-3.87
2023-02-08T03:58:46.398Z,-3.78
2023-02-08T03:59:46.608Z,-3.88
2023-02-08T04:00:47.545Z,-3.87
2023-02-08T04:01:48.030Z,-3.91
2023-02-08T04:02:48.383Z,-3.96
2023-02-08T04:03:48.732Z,-3.9
2023-02-08T04:04:49.208Z,-3.99
2023-02-08T04:05:49.861Z,-3.9
2023-02-08T04:06:50.508Z,-3.98
2023-02-08T04:07:51.450Z,-3.91
2023-02-08T04:08:52.674Z,-3.94
2023-02-08T04:09:53.203Z,-4.05
2023-02-08T04:10:54.137Z,-4.01
2023-02-08T04:11:54.347Z,-3.96
2023-02-08T04:12:54.894Z,-4.01
2023-02-08T04:13:55.677Z,-4.04
2023-02-08T04:14:56.578Z,-4.05
2023-02-08T04:15:57.595Z,-3.94
2023-02-08T04:16:58.220Z,-4.12
2023-02-08T04:17:58.416Z,-4.04
2023-02-08T04:18:58.629Z,-4.02
2023-02-08T04:19:59.124Z,-4.01
2023-02-08T04:20:59.339Z,-4.01
2023-02-08T04:21:59.288Z,-3.99
2023-02-08T04:23:00.205Z,-4.01
2023-02-08T04:24:00.191Z,-4.09
2023-02-08T04:25:00.891Z,-4.14
2023-02-08T04:26:02.157Z,-3.96
2023-02-08T04:27:06.029Z,-4.05
2023-02-08T04:28:03.495Z,-4.06
2023-02-08T04:29:03.851Z,-4.05
2023-02-08T04:30:04.089Z,-4.17
2023-02-08T04:31:05.037Z,-4.12
2023-02-08T04:32:04.439Z,-4.08
2023-02-08T04:33:04.668Z,-4.12
2023-02-08T04:34:05.465Z,-4.14
2023-02-08T04:35:06.390Z,-4.13
2023-02-08T04:36:07.606Z,-4.14
2023-02-08T04:37:07.821Z,-4.16
2023-02-08T04:38:09.003Z,-4.08
2023-02-08T04:39:08.968Z,-4.12
2023-02-08T04:40:10.510Z,-4.08
2023-02-08T04:41:11.479Z,-4.12
2023-02-08T04:42:12.433Z,-4.17
2023-02-08T04:43:12.974Z,-4.16
2023-02-08T04:44:13.704Z,-4.17
2023-02-08T04:45:14.629Z,-4.26
2023-02-08T04:46:14.651Z,-4.23
2023-02-08T04:47:14.986Z,-4.14
2023-02-08T04:48:17.798Z,-4.27
2023-02-08T04:49:15.988Z,-4.24
2023-02-08T04:50:15.924Z,-4.23
2023-02-08T04:51:16.579Z,-4.33
2023-02-08T04:52:17.523Z,-4.31
2023-02-08T04:53:17.749Z,-4.34
2023-02-08T04:54:17.780Z,-4.41
2023-02-08T04:55:18.740Z,-4.38
2023-02-08T04:56:18.966Z,-4.31
2023-02-08T04:57:18.899Z,-4.27
2023-02-08T04:58:19.138Z,-4.35
2023-02-08T04:59:20.065Z,-4.33
2023-02-08T05:00:20.719Z,-4.27
2023-02-08T05:01:22.044Z,-4.3
2023-02-08T05:02:22.394Z,-4.17
2023-02-08T05:03:22.631Z,-4.19
2023-02-08T05:04:23.437Z,-4.2
2023-02-08T05:05:24.599Z,-4.24
2023-02-08T05:06:24.814Z,-4.2
2023-02-08T05:07:25.172Z,-4.23
2023-02-08T05:08:25.417Z,-4.17
2023-02-08T05:09:26.045Z,-4.2
2023-02-08T05:10:27.001Z,-4.22
2023-02-08T05:11:27.616Z,-4.23
2023-02-08T05:12:27.806Z,-4.3
2023-02-08T05:13:29.060Z,-4.22
2023-02-08T05:14:29.685Z,-4.16
2023-02-08T05:15:29.894Z,-4.09
2023-02-08T05:16:30.191Z,-4.06
2023-02-08T05:17:30.384Z,-4.08
2023-02-08T05:18:30.591Z,-4.16
2023-02-08T05:19:31.076Z,-4.16
2023-02-08T05:20:31.061Z,-4.04
2023-02-08T05:21:32.582Z,-4.19
2023-02-08T05:22:33.085Z,-4.08
2023-02-08T05:23:33.283Z,-4.09
2023-02-08T05:24:34.252Z,-4.04
2023-02-08T05:25:34.515Z,-4.05
2023-02-08T05:26:35.020Z,-4.02
2023-02-08T05:27:34.658Z,-4.06
2023-02-08T05:28:35.604Z,-3.98
2023-02-08T05:29:35.428Z,-4.14
2023-02-08T05:30:36.935Z,-3.95
2023-02-08T05:31:37.734Z,-4.06
2023-02-08T05:32:38.021Z,-4.12
2023-02-08T05:33:38.941Z,-4.04
2023-02-08T05:34:39.215Z,-4.16
2023-02-08T05:35:39.910Z,-4.19
2023-02-08T05:36:40.123Z,-4.2
2023-02-08T05:37:40.791Z,-4.31
2023-02-08T05:38:41.024Z,-4.31
2023-02-08T05:39:41.232Z,-4.2
2023-02-08T05:40:42.353Z,-4.27
2023-02-08T05:41:41.961Z,-4.31
2023-02-08T05:42:42.908Z,-4.24
2023-02-08T05:43:43.439Z,-4.33
2023-02-08T05:44:44.451Z,-4.23
2023-02-08T05:45:44.713Z,-4.3
2023-02-08T05:46:46.071Z,-4.22
2023-02-08T05:47:46.865Z,-4.27
2023-02-08T05:48:47.450Z,-4.33
2023-02-08T05:49:47.657Z,-4.24
2023-02-08T05:50:48.237Z,-4.33
2023-02-08T05:51:48.426Z,-4.35
2023-02-08T05:52:48.326Z,-4.45
2023-02-08T05:53:48.686Z,-4.49
2023-02-08T05:54:49.996Z,-4.45
2023-02-08T05:55:50.964Z,-4.49
2023-02-08T05:56:51.489Z,-4.61
2023-02-08T05:57:51.693Z,-4.53
2023-02-08T05:58:52.245Z,-4.56
2023-02-08T05:59:52.151Z,-4.61
2023-02-08T06:00:53.060Z,-4.62
2023-02-08T06:01:54.283Z,-4.59
2023-02-08T06:02:55.353Z,-4.58
2023-02-08T06:03:55.907Z,-4.62
2023-02-08T06:04:56.677Z,-4.56
2023-02-08T06:05:57.591Z,-4.47
2023-02-08T06:06:58.212Z,-4.53
2023-02-08T06:07:59.131Z,-4.56
2023-02-08T06:09:00.132Z,-4.62
2023-02-08T06:10:00.745Z,-4.59
2023-02-08T06:11:01.788Z,-4.61
2023-02-08T06:12:02.335Z,-4.62
2023-02-08T06:13:02.541Z,-4.56
2023-02-08T06:14:03.061Z,-4.65
2023-02-08T06:15:03.391Z,-4.61
2023-02-08T06:16:04.712Z,-4.62
2023-02-08T06:17:05.193Z,-4.56
2023-02-08T06:18:05.140Z,-4.58
2023-02-08T06:19:05.622Z,-4.59
2023-02-08T06:20:05.828Z,-4.52
2023-02-08T06:21:06.780Z,-4.49
2023-02-08T06:22:07.682Z,-4.56
2023-02-08T06:23:07.890Z,-4.56
2023-02-08T06:24:08.510Z,-4.51
2023-02-08T06:25:09.521Z,-4.45
2023-02-08T06:26:10.207Z,-4.44
2023-02-08T06:27:10.437Z,-4.63
2023-02-08T06:28:11.385Z,-4.61
2023-02-08T06:29:11.802Z,-4.59
2023-02-08T06:30:11.728Z,-4.76
2023-02-08T06:31:12.328Z,-4.7
2023-02-08T06:32:13.602Z,-4.76
2023-02-08T06:33:16.252Z,-4.74
2023-02-08T06:34:14.452Z,-4.79
2023-02-08T06:35:14.921Z,-4.65
2023-02-08T06:36:15.855Z,-4.71
2023-02-08T06:37:16.775Z,-4.7
2023-02-08T06:38:17.744Z,-4.69
2023-02-08T06:39:18.242Z,-4.55
2023-02-08T06:40:18.440Z,-4.59
2023-02-08T06:41:19.425Z,-4.67
2023-02-08T06:42:19.633Z,-4.69
2023-02-08T06:43:20.318Z,-4.69
2023-02-08T06:44:21.362Z,-4.69
2023-02-08T06:45:22.335Z,-4.69
2023-02-08T06:46:23.336Z,-4.69
2023-02-08T06:47:24.275Z,-4.63
2023-02-08T06:48:24.204Z,-4.69
2023-02-08T06:49:24.854Z,-4.71
2023-02-08T06:50:25.053Z,-4.71
2023-02-08T06:51:25.984Z,-4.69
2023-02-08T06:52:26.611Z,-4.71
2023-02-08T06:53:27.238Z,-4.69
2023-02-08T06:54:27.776Z,-4.69
2023-02-08T06:55:28.821Z,-4.63
2023-02-08T06:56:29.806Z,-4.52
2023-02-08T06:57:29.762Z,-4.44
2023-02-08T06:58:30.693Z,-4.35
2023-02-08T06:59:31.229Z,-4.2
2023-02-08T07:00:31.570Z,-4.22
2023-02-08T07:01:32.266Z,-4.19
2023-02-08T07:02:32.665Z,-4.2
2023-02-08T07:03:32.639Z,-4.04
2023-02-08T07:04:33.560Z,-3.85
2023-02-08T07:05:34.575Z,-3.71
2023-02-08T07:06:35.187Z,-3.61
2023-02-08T07:07:35.397Z,-3.65
2023-02-08T07:08:36.004Z,-3.5
2023-02-08T07:09:36.257Z,-3.5
2023-02-08T07:10:37.471Z,-3.47
2023-02-08T07:11:37.891Z,-3.43
2023-02-08T07:12:38.832Z,-3.43
2023-02-08T07:13:39.320Z,-3.51
2023-02-08T07:14:39.606Z,-3.4
2023-02-08T07:15:40.224Z,-3.41
2023-02-08T07:16:40.690Z,-3.47
2023-02-08T07:17:40.429Z,-3.41
2023-02-08T07:18:41.063Z,-3.46
2023-02-08T07:19:41.593Z,-3.41
2023-02-08T07:20:42.547Z,-3.22
2023-02-08T07:21:42.793Z,-3.23
2023-02-08T07:22:43.130Z,-3.09
2023-02-08T07:23:44.656Z,-3.09
2023-02-08T07:24:44.590Z,-2.96
2023-02-08T07:25:45.876Z,-2.96
2023-02-08T07:26:46.856Z,-2.96
2023-02-08T07:27:47.086Z,-2.89
2023-02-08T07:28:47.388Z,-2.8
2023-02-08T07:29:47.638Z,-2.65
2023-02-08T07:30:48.908Z,-2.61
2023-02-08T07:31:49.137Z,-2.55
2023-02-08T07:32:49.244Z,-2.48
2023-02-08T07:33:49.884Z,-2.32
2023-02-08T07:34:51.397Z,-2.11
2023-02-08T07:35:51.500Z,-2.08
2023-02-08T07:36:52.712Z,-1.92
2023-02-08T07:37:53.086Z,-1.9
2023-02-08T07:38:54.598Z,-1.89
2023-02-08T07:39:54.645Z,-1.92
2023-02-08T07:40:55.854Z,-1.92
2023-02-08T07:41:56.823Z,-1.87
2023-02-08T07:42:57.377Z,-1.74
2023-02-08T07:43:57.610Z,-1.6
2023-02-08T07:44:57.855Z,-1.3
2023-02-08T07:45:58.753Z,-0.96
2023-02-08T07:46:59.820Z,-0.54
2023-02-08T07:47:59.759Z,-0.12
2023-02-08T07:49:00.678Z,0.33
2023-02-08T07:50:00.896Z,0.49
2023-02-08T07:51:01.843Z,0.66
2023-02-08T07:52:02.154Z,0.7
2023-02-08T07:53:03.032Z,0.78
2023-02-08T07:54:03.680Z,0.99
2023-02-08T07:55:04.359Z,1.2
2023-02-08T07:56:05.134Z,1.28
2023-02-08T07:57:08.162Z,1.3
2023-02-08T07:58:05.462Z,1.3
2023-02-08T07:59:04.972Z,1.3
2023-02-08T08:00:06.236Z,1.52
2023-02-08T08:01:23.410Z,1.61
2023-02-08T08:02:06.880Z,1.68
2023-02-08T08:03:07.196Z,1.79
2023-02-08T08:04:08.546Z,1.81
2023-02-08T08:05:08.964Z,1.97
2023-02-08T08:06:09.011Z,2.12
2023-02-08T08:07:09.554Z,2.08
2023-02-08T08:08:10.198Z,2.18
2023-02-08T08:09:10.410Z,2.15
2023-02-08T08:10:10.671Z,1.86
2023-02-08T08:11:10.910Z,1.76
2023-02-08T08:12:11.276Z,1.61
2023-02-08T08:13:11.879Z,1.53
2023-02-08T08:14:12.377Z,1.25
2023-02-08T08:15:12.396Z,1.09
2023-02-08T08:16:13.826Z,1.09
2023-02-08T08:17:14.161Z,1.02
2023-02-08T08:18:14.672Z,1.03
2023-02-08T08:19:14.600Z,1.31
2023-02-08T08:20:15.818Z,1.39
2023-02-08T08:21:16.049Z,1.45
2023-02-08T08:22:16.284Z,1.27
2023-02-08T08:23:16.929Z,1.27
2023-02-08T08:24:18.180Z,1.34
2023-02-08T08:25:18.386Z,1.56
2023-02-08T08:26:19.472Z,1.71
2023-02-08T08:27:20.170Z,1.82
2023-02-08T08:28:21.204Z,2.19
2023-02-08T08:29:21.124Z,2.37
2023-02-08T08:30:21.772Z,2.5
2023-02-08T08:31:22.494Z,2.54
2023-02-08T08:32:22.987Z,2.46
2023-02-08T08:33:23.200Z,2.26
2023-02-08T08:34:24.442Z,2.15
2023-02-08T08:35:24.806Z,1.89
2023-02-08T08:36:25.631Z,1.76
2023-02-08T08:37:26.557Z,1.68
2023-02-08T08:38:27.905Z,1.42
2023-02-08T08:39:28.141Z,1.12
2023-02-08T08:40:31.083Z,0.91
2023-02-08T08:41:29.102Z,0.63
2023-02-08T08:42:29.418Z,0.48
2023-02-08T08:43:29.984Z,0.63
2023-02-08T08:44:30.484Z,0.71
2023-02-08T08:45:30.979Z,0.74
2023-02-08T08:46:31.603Z,0.85
2023-02-08T08:47:32.623Z,1
2023-02-08T08:48:32.552Z,1.25
2023-02-08T08:49:33.186Z,1.66
2023-02-08T08:50:33.390Z,1.89
2023-02-08T08:51:34.116Z,2.18
2023-02-08T08:52:35.045Z,2.22
2023-02-08T08:53:36.277Z,2.4
2023-02-08T08:54:37.207Z,2.41
2023-02-08T08:55:37.882Z,2.61
2023-02-08T08:56:38.431Z,2.62
2023-02-08T08:57:38.981Z,2.65
2023-02-08T08:58:39.538Z,2.58
2023-02-08T08:59:39.783Z,2.47
2023-02-08T09:00:41.221Z,2.41
2023-02-08T09:01:41.438Z,2.41
2023-02-08T09:02:41.947Z,2.36
2023-02-08T09:03:42.677Z,2.36
2023-02-08T09:04:42.888Z,2.08
2023-02-08T09:05:43.100Z,1.82
2023-02-08T09:06:43.720Z,1.76
2023-02-08T09:07:44.290Z,1.49
2023-02-08T09:08:44.649Z,1.43
2023-02-08T09:09:44.648Z,1.42
2023-02-08T09:10:45.249Z,1.48
2023-02-08T09:11:46.046Z,1.46
2023-02-08T09:12:46.485Z,1.42
2023-02-08T09:13:46.929Z,1.45
2023-02-08T09:14:47.295Z,1.38
2023-02-08T09:15:47.928Z,1.52
2023-02-08T09:16:48.079Z,1.82
2023-02-08T09:17:48.064Z,2.14
2023-02-08T09:18:48.575Z,2.36
2023-02-08T09:19:48.927Z,2.34
2023-02-08T09:20:50.489Z,2.39
2023-02-08T09:21:50.752Z,2.51
2023-02-08T09:22:51.334Z,2.4
2023-02-08T09:23:51.593Z,2.41
2023-02-08T09:24:52.138Z,2.37
2023-02-08T09:25:53.467Z,2.52
2023-02-08T09:26:52.510Z,2.75
2023-02-08T09:27:53.579Z,2.8
2023-02-08T09:28:54.291Z,2.97
2023-02-08T09:29:54.612Z,3.09
2023-02-08T09:30:55.482Z,3.13
2023-02-08T09:31:56.501Z,3.01
2023-02-08T09:32:56.805Z,3.11
2023-02-08T09:33:57.082Z,3.5
2023-02-08T09:34:57.487Z,3.64
2023-02-08T09:35:57.622Z,3.71
2023-02-08T09:36:58.830Z,3.84
2023-02-08T09:37:58.782Z,3.99
2023-02-08T09:38:59.283Z,4.02
2023-02-08T09:39:59.869Z,3.92
2023-02-08T09:41:00.390Z,3.85
2023-02-08T09:42:00.993Z,3.7
2023-02-08T09:43:01.408Z,3.7
2023-02-08T09:44:01.766Z,3.74
2023-02-08T09:45:02.138Z,3.77
2023-02-08T09:46:05.994Z,3.71
2023-02-08T09:47:03.654Z,3.85
2023-02-08T09:48:04.076Z,4.13
2023-02-08T09:49:04.288Z,4.34
2023-02-08T09:50:04.883Z,4.5
2023-02-08T09:51:04.893Z,4.75
2023-02-08T09:52:05.354Z,4.82
2023-02-08T09:53:05.508Z,4.82
2023-02-08T09:54:06.255Z,4.83
2023-02-08T09:55:07.193Z,5.07
2023-02-08T09:56:08.081Z,5.08
2023-02-08T09:57:08.971Z,5.2
2023-02-08T09:58:09.075Z,5.47
2023-02-08T09:59:09.786Z,5.72
2023-02-08T10:00:09.695Z,5.94
2023-02-08T10:01:12.067Z,6.17
2023-02-08T10:02:11.319Z,6.31
2023-02-08T10:03:12.159Z,6.41
2023-02-08T10:04:12.648Z,6.49
2023-02-08T10:05:12.606Z,6.52
2023-02-08T10:06:13.292Z,6.59
2023-02-08T10:07:14.544Z,6.6
2023-02-08T10:08:14.835Z,6.52
2023-02-08T10:09:15.651Z,6.49
2023-02-08T10:10:15.640Z,6.38
2023-02-08T10:11:15.966Z,6.16
2023-02-08T10:12:17.303Z,5.99
2023-02-08T10:13:17.890Z,5.77
2023-02-08T10:14:18.544Z,5.64
2023-02-08T10:15:18.777Z,5.59
2023-02-08T10:16:19.500Z,5.44
2023-02-08T10:17:20.370Z,5.47
2023-02-08T10:18:21.101Z,5.4
2023-02-08T10:19:21.257Z,5.41
2023-02-08T10:20:21.496Z,5.29
2023-02-08T10:21:22.785Z,5.31
2023-02-08T10:22:22.878Z,5.55
2023-02-08T10:23:27.915Z,5.59
2023-02-08T10:24:24.430Z,5.76
2023-02-08T10:25:25.426Z,6.07
2023-02-08T10:26:25.736Z,6.41
2023-02-08T10:27:26.135Z,6.72
2023-02-08T10:28:27.122Z,7.26
2023-02-08T10:29:28.052Z,7.69
2023-02-08T10:30:28.591Z,8.05
2023-02-08T10:31:29.228Z,8.38
2023-02-08T10:32:29.542Z,8.81
2023-02-08T10:33:30.155Z,9.12
2023-02-08T10:34:30.209Z,9.31
2023-02-08T10:35:31.777Z,9.55
2023-02-08T10:36:31.895Z,9.82
2023-02-08T10:37:31.978Z,9.85
2023-02-08T10:38:47.304Z,9.99
2023-02-08T10:39:35.873Z,10.09
2023-02-08T10:40:33.981Z,10.12
2023-02-08T10:41:34.357Z,10.15
2023-02-08T10:42:34.760Z,10.28
2023-02-08T10:43:35.874Z,10.25
2023-02-08T10:44:36.275Z,10.12
2023-02-08T10:45:37.274Z,10.2
2023-02-08T10:46:37.606Z,10.28
2023-02-08T10:47:38.218Z,9.82
2023-02-08T10:48:38.750Z,9.51
2023-02-08T10:49:39.014Z,9.27
2023-02-08T10:50:39.748Z,9.15
2023-02-08T10:51:40.381Z,8.84
2023-02-08T10:52:40.580Z,8.81
2023-02-08T10:53:41.607Z,8.81
2023-02-08T10:54:41.963Z,9.08
2023-02-08T10:55:43.828Z,9.27
2023-02-08T10:56:44.052Z,9.47
2023-02-08T10:57:44.728Z,9.59
2023-02-08T10:58:45.309Z,9.97
2023-02-08T10:59:45.630Z,10.23
2023-02-08T11:00:46.483Z,10.62
2023-02-08T11:01:47.300Z,10.98
2023-02-08T11:02:47.684Z,11.07
2023-02-08T11:03:48.063Z,11.15
2023-02-08T11:04:48.494Z,11.16
2023-02-08T11:05:49.339Z,11.12
2023-02-08T11:06:49.667Z,11.01
2023-02-08T11:07:50.057Z,10.87
2023-02-08T11:08:50.302Z,10.79
2023-02-08T11:09:51.271Z,10.57
2023-02-08T11:10:52.080Z,10.28
2023-02-08T11:11:53.238Z,10.18
2023-02-08T11:12:53.312Z,10.12
2023-02-08T11:13:54.510Z,9.95
2023-02-08T11:14:55.325Z,9.87
2023-02-08T11:15:55.529Z,9.81
2023-02-08T11:16:56.352Z,9.8
2023-02-08T11:17:56.680Z,9.73
2023-02-08T11:18:57.202Z,9.59
2023-02-08T11:19:57.334Z,9.58
2023-02-08T11:20:58.070Z,9.55
2023-02-08T11:21:58.391Z,9.48
2023-02-08T11:22:58.208Z,9.36
2023-02-08T11:23:58.901Z,9.36
2023-02-08T11:25:00.088Z,9.31
2023-02-08T11:26:00.210Z,9.24
2023-02-08T11:27:01.132Z,9.3
2023-02-08T11:28:02.415Z,9.3
2023-02-08T11:29:03.068Z,9.31
2023-02-08T11:30:03.302Z,9.54
2023-02-08T11:31:03.706Z,9.54
2023-02-08T11:32:04.400Z,9.51
2023-02-08T11:33:04.918Z,9.51
2023-02-08T11:34:04.594Z,9.11
2023-02-08T11:35:05.818Z,8.81
2023-02-08T11:36:06.761Z,8.68
2023-02-08T11:37:07.180Z,8.45
2023-02-08T11:38:07.960Z,8.54
2023-02-08T11:39:08.478Z,8.31
2023-02-08T11:40:09.205Z,8.16
2023-02-08T11:41:09.579Z,7.85
2023-02-08T11:42:10.794Z,7.72
2023-02-08T11:43:11.002Z,7.69
2023-02-08T11:44:11.577Z,7.56
2023-02-08T11:45:12.135Z,7.67
2023-02-08T11:46:12.203Z,7.7
2023-02-08T11:47:12.843Z,7.84
2023-02-08T11:48:13.669Z,7.87
2023-02-08T11:49:13.893Z,7.75
2023-02-08T11:50:14.534Z,7.58
2023-02-08T11:51:14.481Z,7.23
2023-02-08T11:52:15.429Z,6.89
2023-02-08T11:53:15.938Z,6.8
2023-02-08T11:54:15.878Z,6.87
2023-02-08T11:55:16.858Z,6.89
2023-02-08T11:56:16.551Z,7.11
2023-02-08T11:57:17.758Z,7.23
2023-02-08T11:58:18.110Z,7.26
2023-02-08T11:59:19.139Z,7.11
2023-02-08T12:00:40.887Z,7.04
2023-02-08T12:01:20.448Z,7
2023-02-08T12:02:21.164Z,6.87
2023-02-08T12:03:21.687Z,7.01
2023-02-08T12:04:22.321Z,7.14
2023-02-08T12:05:22.582Z,7.21
2023-02-08T12:06:22.613Z,7.28
2023-02-08T12:07:23.157Z,7.26
2023-02-08T12:08:23.834Z,7.21
2023-02-08T12:09:24.154Z,7.31
2023-02-08T12:10:25.025Z,7.33
2023-02-08T12:11:25.257Z,7.37
2023-02-08T12:12:25.624Z,7.32
2023-02-08T12:17:28.856Z,6.85
2023-02-08T12:18:29.697Z,6.86
2023-02-08T12:19:30.243Z,6.71
2023-02-08T12:20:31.241Z,6.67
2023-02-08T12:21:31.939Z,6.7
2023-02-08T12:22:32.311Z,6.87
2023-02-08T12:23:32.949Z,7.01
2023-02-08T12:24:34.081Z,7.22
2023-02-08T12:25:33.785Z,7.26
2023-02-08T12:26:35.199Z,7.44
2023-02-08T12:27:36.145Z,7.4
2023-02-08T12:28:36.025Z,7.33
2023-02-08T12:29:52.624Z,7.43
2023-02-08T12:30:37.799Z,7.33
2023-02-08T12:31:38.571Z,7.4
2023-02-08T12:32:38.832Z,7.59
2023-02-08T12:33:39.605Z,7.69
2023-02-08T12:34:39.320Z,7.78
2023-02-08T12:36:05.508Z,7.56
2023-02-08T12:36:41.296Z,7.46
2023-02-08T12:37:41.400Z,7.41
2023-02-08T12:38:41.773Z,7.37
2023-02-08T12:39:42.750Z,7.18
2023-02-08T12:40:42.685Z,7.07
2023-02-08T12:41:42.948Z,6.8
2023-02-08T12:42:43.903Z,6.68
2023-02-08T12:43:45.061Z,6.71
2023-02-08T12:44:45.534Z,6.74
2023-02-08T12:45:46.925Z,6.5
2023-02-08T12:46:46.378Z,6.19
2023-02-08T12:48:05.063Z,6.07
2023-02-08T12:48:53.843Z,6.01
2023-02-08T12:49:53.788Z,5.95
2023-02-08T12:50:54.462Z,5.9
2023-02-08T12:51:55.421Z,6.15
2023-02-08T12:52:55.885Z,6.25
2023-02-08T12:53:55.812Z,6.38
2023-02-08T12:54:57.185Z,6.65
2023-02-08T12:55:57.986Z,6.83
2023-02-08T12:57:08.296Z,6.78
2023-02-08T12:57:59.529Z,6.83
2023-02-08T12:59:14.164Z,6.89
2023-02-08T13:00:00.480Z,7
2023-02-08T13:01:01.191Z,6.97
2023-02-08T13:02:01.538Z,7.14
2023-02-08T13:03:02.192Z,7.32
2023-02-08T13:04:02.723Z,7.32
2023-02-08T13:05:03.336Z,7.36
2023-02-08T13:06:09.041Z,7.47
2023-02-08T13:07:04.277Z,7.55
2023-02-08T13:08:04.803Z,7.66
2023-02-08T13:09:05.137Z,7.64
2023-02-08T13:10:06.102Z,7.85
2023-02-08T13:11:24.837Z,7.95
2023-02-08T13:12:08.067Z,7.96
2023-02-08T13:13:08.300Z,8.02
2023-02-08T13:14:09.284Z,8.18
2023-02-08T13:15:24.956Z,8.18
2023-02-08T13:16:10.058Z,8.17
2023-02-08T13:17:10.485Z,8.05